createdAt,value
2023-05-14T00:00:02.020Z,100683.64
2023-05-14T00:03:15.678Z,100679.44
2023-05-14T00:06:13.994Z,100680.62
2023-05-14T00:09:15.206Z,100678.08
2023-05-14T00:12:30.889Z,100676.18
2023-05-14T00:15:10.885Z,100678.98
2023-05-14T00:18:14.895Z,100680.48
2023-05-14T00:21:27.218Z,100681.48
2023-05-14T00:24:39.734Z,100678.85
2023-05-14T00:28:09.361Z,100678.84
2023-05-14T00:31:45.182Z,100672.69
2023-05-14T00:35:25.053Z,100673.52
2023-05-14T00:39:01.227Z,100672.70
2023-05-14T00:42:29.081Z,100676.07
2023-05-14T00:45:17.560Z,100674.63
2023-05-14T00:47:50.269Z,100674.45
2023-05-14T00:51:13.685Z,100669.59
2023-05-14T00:55:02.381Z,100664.69
2023-05-14T00:59:12.124Z,100662.28
2023-05-14T01:02:32.903Z,100662.03
2023-05-14T01:06:46.868Z,100656.30
2023-05-14T01:10:42.621Z,100638.48
2023-05-14T01:14:33.883Z,100657.65
2023-05-14T01:17:44.905Z,100659.86
2023-05-14T01:21:17.573Z,100662.10
2023-05-14T01:24:58.654Z,100663.44
2023-05-14T01:28:13.657Z,100659.81
2023-05-14T01:31:39.802Z,100664.77
2023-05-14T01:34:53.711Z,100665.62
2023-05-14T01:38:21.475Z,100662.02
2023-05-14T01:41:44.173Z,100664.69
2023-05-14T01:45:08.951Z,100657.15
2023-05-14T01:48:34.261Z,100655.52
2023-05-14T01:52:32.752Z,100651.54
2023-05-14T01:55:45.740Z,100650.58
2023-05-14T01:58:27.268Z,100648.84
2023-05-14T02:01:26.549Z,100647.02
2023-05-14T02:05:25.561Z,100645.63
2023-05-14T02:09:25.206Z,100646.69
2023-05-14T02:13:24.900Z,100647.46
2023-05-14T02:17:14.895Z,100621.41
2023-05-14T02:21:15.682Z,100642.77
2023-05-14T02:25:25.402Z,100628.52
2023-05-14T02:29:35.013Z,100636.73
2023-05-14T02:33:45.022Z,100636.66
2023-05-14T02:37:54.696Z,100636.36
2023-05-14T02:41:44.253Z,100634.65
2023-05-14T02:45:54.004Z,100635.77
2023-05-14T02:49:56.606Z,100631.45
2023-05-14T02:54:06.410Z,100632.11
2023-05-14T02:58:16.186Z,100633.06
2023-05-14T03:02:19.065Z,100634.67
2023-05-14T03:06:29.377Z,100630.30
2023-05-14T03:10:28.943Z,100630.65
2023-05-14T03:14:28.868Z,100637.81
2023-05-14T03:18:28.534Z,100634.74
2023-05-14T03:22:28.552Z,100632.98
2023-05-14T03:26:38.221Z,100636.87
2023-05-14T03:30:48.419Z,100627.92
2023-05-14T03:34:58.124Z,100643.81
2023-05-14T03:38:40.371Z,100639.26
2023-05-14T03:42:40.569Z,100636.25
2023-05-14T03:46:50.398Z,100624.92
2023-05-14T03:50:20.829Z,100619.63
2023-05-14T03:53:26.600Z,100618.36
2023-05-14T03:56:25.500Z,100620.29
2023-05-14T03:59:36.077Z,100622.23
2023-05-14T04:03:19.299Z,100624.80
2023-05-14T04:07:29.293Z,100628.23
2023-05-14T04:11:29.063Z,100625.99
2023-05-14T04:15:39.199Z,100632.64
2023-05-14T04:19:24.743Z,100624.15
2023-05-14T04:23:24.677Z,100631.27
2023-05-14T04:27:34.328Z,100634.25
2023-05-14T04:31:17.182Z,100631.86
2023-05-14T04:35:26.977Z,100629.33
2023-05-14T04:39:09.607Z,100629.23
2023-05-14T04:42:59.748Z,100626.71
2023-05-14T04:46:49.406Z,100619.91
2023-05-14T04:50:59.074Z,100621.71
2023-05-14T04:55:01.849Z,100619.09
2023-05-14T04:59:11.420Z,100616.27
2023-05-14T05:03:13.992Z,100612.07
2023-05-14T05:07:04.121Z,100611.91
2023-05-14T05:11:04.998Z,100606.67
2023-05-14T05:14:44.682Z,100602.89
2023-05-14T05:18:36.904Z,100581.73
2023-05-14T05:22:11.473Z,100595.51
2023-05-14T05:26:11.587Z,100595.95
2023-05-14T05:30:01.385Z,100592.27
2023-05-14T05:33:51.382Z,100586.14
2023-05-14T05:37:43.943Z,100579.36
2023-05-14T05:41:13.760Z,100575.29
2023-05-14T05:44:56.534Z,100580.84
2023-05-14T05:48:34.783Z,100578.56
2023-05-14T05:52:29.179Z,100579.80
2023-05-14T05:55:51.661Z,100581.45
2023-05-14T05:59:41.405Z,100581.64
2023-05-14T06:03:31.317Z,100583.44
2023-05-14T06:06:40.678Z,100584.16
2023-05-14T06:09:33.455Z,100583.71
2023-05-14T06:12:46.508Z,100581.88
2023-05-14T06:15:27.462Z,100579.78
2023-05-14T06:18:32.650Z,100581.67
2023-05-14T06:21:33.278Z,100583.76
2023-05-14T06:25:02.070Z,100585.35
2023-05-14T06:28:15.408Z,100582.45
2023-05-14T06:30:55.383Z,100579.89
2023-05-14T06:33:58.551Z,100571.83
2023-05-14T06:37:21.709Z,100567.75
2023-05-14T06:41:21.586Z,100578.80
2023-05-14T06:44:51.675Z,100579.65
2023-05-14T06:48:33.677Z,100575.28
2023-05-14T06:51:18.113Z,100567.89
2023-05-14T06:54:22.127Z,100573.11
2023-05-14T06:57:07.123Z,100577.02
2023-05-14T07:00:11.182Z,100574.04
2023-05-14T07:02:50.916Z,100566.50
2023-05-14T07:05:42.973Z,100562.82
2023-05-14T07:08:55.786Z,100555.00
2023-05-14T07:11:33.228Z,100550.98
2023-05-14T07:14:17.787Z,100546.02
2023-05-14T07:16:50.884Z,100546.18
2023-05-14T07:19:22.554Z,100543.47
2023-05-14T07:21:55.517Z,100543.80
2023-05-14T07:24:46.387Z,100546.08
2023-05-14T07:27:28.806Z,100541.83
2023-05-14T07:29:58.929Z,100539.95
2023-05-14T07:32:32.824Z,100534.11
2023-05-14T07:35:22.005Z,100524.48
2023-05-14T07:38:23.769Z,100531.98
2023-05-14T07:41:02.031Z,100534.59
2023-05-14T07:43:34.881Z,100530.66
2023-05-14T07:46:12.883Z,100531.81
2023-05-14T07:48:52.703Z,100528.18
2023-05-14T07:51:23.535Z,100527.56
2023-05-14T07:53:52.951Z,100527.59
2023-05-14T07:56:25.325Z,100518.09
2023-05-14T07:58:59.017Z,100520.78
2023-05-14T08:01:44.138Z,100519.98
2023-05-14T08:04:26.220Z,100517.58
2023-05-14T08:06:59.033Z,100517.23
2023-05-14T08:09:31.291Z,100494.42
2023-05-14T08:12:03.811Z,100514.08
2023-05-14T08:14:34.956Z,100512.13
2023-05-14T08:17:07.960Z,100512.00
2023-05-14T08:19:40.396Z,100508.09
2023-05-14T08:22:13.037Z,100510.79
2023-05-14T08:24:43.705Z,100509.05
2023-05-14T08:27:23.111Z,100508.79
2023-05-14T08:29:53.968Z,100504.99
2023-05-14T08:32:24.992Z,100503.00
2023-05-14T08:34:54.578Z,100504.09
2023-05-14T08:37:24.383Z,100498.84
2023-05-14T08:39:56.053Z,100494.36
2023-05-14T08:42:29.629Z,100495.16
2023-05-14T08:45:03.759Z,100489.48
2023-05-14T08:47:36.596Z,100490.59
2023-05-14T08:50:09.110Z,100490.15
2023-05-14T08:52:40.385Z,100469.77
2023-05-14T08:55:14.215Z,100481.75
2023-05-14T08:57:47.974Z,100479.59
2023-05-14T09:00:20.756Z,100472.23
2023-05-14T09:02:54.334Z,100474.28
2023-05-14T09:05:26.026Z,100473.41
2023-05-14T09:07:59.140Z,100470.39
2023-05-14T09:10:40.803Z,100463.47
2023-05-14T09:13:10.747Z,100458.91
2023-05-14T09:15:41.647Z,100459.91
2023-05-14T09:18:10.754Z,100459.65
2023-05-14T09:20:42.127Z,100458.43
2023-05-14T09:23:12.818Z,100458.55
2023-05-14T09:25:45.996Z,100453.62
2023-05-14T09:28:19.534Z,100449.05
2023-05-14T09:30:52.596Z,100444.67
2023-05-14T09:33:29.091Z,100436.77
2023-05-14T09:36:02.252Z,100433.17
2023-05-14T09:38:32.857Z,100423.38
2023-05-14T09:41:02.083Z,100422.10
2023-05-14T09:43:32.300Z,100418.95
2023-05-14T09:46:01.945Z,100414.96
2023-05-14T09:48:31.175Z,100407.44
2023-05-14T09:51:00.137Z,100399.45
2023-05-14T09:53:31.157Z,100399.14
2023-05-14T09:56:02.711Z,100394.79
2023-05-14T09:58:31.787Z,100391.64
2023-05-14T10:01:02.263Z,100393.62
2023-05-14T10:03:32.494Z,100394.10
2023-05-14T10:06:07.245Z,100395.43
2023-05-14T10:08:41.481Z,100392.05
2023-05-14T10:11:25.828Z,100386.81
2023-05-14T10:14:22.510Z,100382.97
2023-05-14T10:16:53.457Z,100378.94
2023-05-14T10:19:26.051Z,100375.36
2023-05-14T10:22:06.063Z,100377.61
2023-05-14T10:24:39.362Z,100374.53
2023-05-14T10:27:10.009Z,100368.38
2023-05-14T10:29:39.478Z,100366.42
2023-05-14T10:32:10.917Z,100364.48
2023-05-14T10:34:46.601Z,100363.37
2023-05-14T10:37:18.514Z,100366.69
2023-05-14T10:40:06.397Z,100364.40
2023-05-14T10:42:44.455Z,100357.20
2023-05-14T10:45:23.837Z,100359.53
2023-05-14T10:47:52.806Z,100357.44
2023-05-14T10:50:25.551Z,100357.70
2023-05-14T10:52:57.964Z,100354.34
2023-05-14T10:55:27.583Z,100352.31
2023-05-14T10:58:01.858Z,100345.42
2023-05-14T11:00:35.245Z,100343.41
2023-05-14T11:03:08.433Z,100330.17
2023-05-14T11:05:41.585Z,100335.48
2023-05-14T11:08:13.102Z,100332.53
2023-05-14T11:10:43.665Z,100327.94
2023-05-14T11:13:14.890Z,100323.20
2023-05-14T11:15:48.725Z,100323.14
2023-05-14T11:18:32.260Z,100318.93
2023-05-14T11:21:15.355Z,100319.13
2023-05-14T11:23:47.849Z,100318.00
2023-05-14T11:26:17.872Z,100313.06
2023-05-14T11:28:47.884Z,100310.13
2023-05-14T11:31:17.213Z,100309.98
2023-05-14T11:33:46.490Z,100300.58
2023-05-14T11:36:16.708Z,100300.73
2023-05-14T11:38:49.500Z,100305.23
2023-05-14T11:41:21.767Z,100305.22
2023-05-14T11:43:51.145Z,100301.66
2023-05-14T11:46:20.249Z,100301.09
2023-05-14T11:48:49.353Z,100297.21
2023-05-14T11:51:18.376Z,100289.45
2023-05-14T11:53:47.658Z,100286.65
2023-05-14T11:56:16.638Z,100275.87
2023-05-14T11:58:49.394Z,100285.41
2023-05-14T12:01:21.192Z,100281.98
2023-05-14T12:03:51.268Z,100275.15
2023-05-14T12:06:20.280Z,100278.69
2023-05-14T12:08:49.902Z,100277.49
2023-05-14T12:11:21.756Z,100273.29
2023-05-14T12:13:50.745Z,100273.59
2023-05-14T12:16:21.207Z,100267.34
2023-05-14T12:18:50.082Z,100269.27
2023-05-14T12:21:19.300Z,100268.58
2023-05-14T12:23:48.660Z,100251.62
2023-05-14T12:26:17.543Z,100260.16
2023-05-14T12:28:48.611Z,100255.26
2023-05-14T12:31:17.631Z,100257.17
2023-05-14T12:33:47.920Z,100253.80
2023-05-14T12:36:21.805Z,100253.02
2023-05-14T12:38:57.492Z,100252.05
2023-05-14T12:41:26.491Z,100254.56
2023-05-14T12:43:56.791Z,100255.08
2023-05-14T12:46:28.282Z,100247.67
2023-05-14T12:48:57.956Z,100240.62
2023-05-14T12:51:27.059Z,100234.20
2023-05-14T12:53:56.040Z,100231.59
2023-05-14T12:56:28.718Z,100231.77
2023-05-14T12:58:57.610Z,100227.86
2023-05-14T13:01:27.068Z,100225.60
2023-05-14T13:03:59.928Z,100220.23
2023-05-14T13:06:29.007Z,100216.84
2023-05-14T13:09:00.811Z,100212.90
2023-05-14T13:11:31.994Z,100211.56
2023-05-14T13:14:02.161Z,100210.55
2023-05-14T13:16:31.575Z,100211.95
2023-05-14T13:19:00.482Z,100207.08
2023-05-14T13:21:32.635Z,100205.38
2023-05-14T13:24:01.770Z,100206.09
2023-05-14T13:26:30.585Z,100201.56
2023-05-14T13:28:59.462Z,100197.95
2023-05-14T13:31:29.313Z,100191.27
2023-05-14T13:33:59.700Z,100185.69
2023-05-14T13:36:28.650Z,100179.09
2023-05-14T13:38:57.639Z,100178.63
2023-05-14T13:41:26.770Z,100177.06
2023-05-14T13:43:56.001Z,100176.21
2023-05-14T13:46:25.139Z,100179.01
2023-05-14T13:48:53.961Z,100179.08
2023-05-14T13:51:24.108Z,100176.15
2023-05-14T13:56:26.825Z,100170.58
2023-05-14T13:58:56.395Z,100171.81
2023-05-14T14:01:26.257Z,100166.63
2023-05-14T14:03:55.413Z,100161.89
2023-05-14T14:06:24.093Z,100162.71
2023-05-14T14:08:53.600Z,100165.71
2023-05-14T14:11:22.589Z,100158.92
2023-05-14T14:13:51.255Z,100146.42
2023-05-14T14:16:20.184Z,100159.29
2023-05-14T14:18:49.837Z,100157.60
2023-05-14T14:21:21.104Z,100158.60
2023-05-14T14:23:50.228Z,100158.20
2023-05-14T14:26:19.402Z,100154.89
2023-05-14T14:28:48.312Z,100154.00
2023-05-14T14:31:17.966Z,100152.06
2023-05-14T14:33:46.899Z,100149.69
2023-05-14T14:36:16.292Z,100145.66
2023-05-14T14:38:45.101Z,100142.50
2023-05-14T14:41:13.808Z,100140.09
2023-05-14T14:43:44.142Z,100140.80
2023-05-14T14:46:14.359Z,100139.08
2023-05-14T14:48:44.455Z,100141.86
2023-05-14T14:51:13.445Z,100140.35
2023-05-14T14:53:42.332Z,100137.04
2023-05-14T14:56:11.739Z,100140.02
2023-05-14T14:58:41.135Z,100130.45
2023-05-14T15:01:10.065Z,100135.76
2023-05-14T15:03:39.502Z,100134.65
2023-05-14T15:06:09.785Z,100136.89
2023-05-14T15:08:38.852Z,100135.38
2023-05-14T15:11:08.975Z,100131.48
2023-05-14T15:13:42.257Z,100129.84
2023-05-14T15:16:15.237Z,100127.66
2023-05-14T15:18:46.952Z,100125.33
2023-05-14T15:21:16.442Z,100119.97
2023-05-14T15:23:46.029Z,100104.66
2023-05-14T15:26:16.580Z,100118.90
2023-05-14T15:28:46.701Z,100119.17
2023-05-14T15:31:16.731Z,100119.90
2023-05-14T15:33:45.979Z,100109.39
2023-05-14T15:36:15.208Z,100113.08
2023-05-14T15:38:44.890Z,100113.65
2023-05-14T15:41:20.750Z,100116.25
2023-05-14T15:43:52.235Z,100113.44
2023-05-14T15:46:23.693Z,100111.48
2023-05-14T15:48:55.534Z,100106.52
2023-05-14T15:51:28.288Z,100103.80
2023-05-14T15:53:58.847Z,100092.90
2023-05-14T15:56:28.134Z,100100.52
2023-05-14T15:58:59.286Z,100095.83
2023-05-14T16:01:31.162Z,100095.95
2023-05-14T16:04:01.798Z,100095.64
2023-05-14T16:06:34.250Z,100095.62
2023-05-14T16:09:05.628Z,100088.83
2023-05-14T16:11:36.121Z,100088.90
2023-05-14T16:14:08.373Z,100092.07
2023-05-14T16:16:37.728Z,100098.27
2023-05-14T16:19:07.545Z,100073.70
2023-05-14T16:21:39.214Z,100095.25
2023-05-14T16:24:09.487Z,100094.25
2023-05-14T16:26:39.588Z,100093.88
2023-05-14T16:29:11.873Z,100068.10
2023-05-14T16:31:41.213Z,100081.73
2023-05-14T16:34:10.572Z,100078.23
2023-05-14T16:36:45.850Z,100074.09
2023-05-14T16:39:17.984Z,100071.55
2023-05-14T16:41:47.061Z,100070.60
2023-05-14T16:44:28.257Z,100072.13
2023-05-14T16:46:57.964Z,100073.77
2023-05-14T16:49:34.649Z,100076.36
2023-05-14T16:52:03.735Z,100078.72
2023-05-14T16:54:42.760Z,100066.57
2023-05-14T16:57:12.661Z,100075.36
2023-05-14T16:59:48.093Z,100072.98
2023-05-14T17:02:31.541Z,100071.08
2023-05-14T17:05:22.083Z,100070.70
2023-05-14T17:07:51.921Z,100068.63
2023-05-14T17:10:30.895Z,100069.00
2023-05-14T17:13:01.368Z,100070.94
2023-05-14T17:15:57.679Z,100066.77
2023-05-14T17:18:28.341Z,100069.39
2023-05-14T17:20:58.688Z,100070.70
2023-05-14T17:23:39.899Z,100067.90
2023-05-14T17:26:09.882Z,100075.48
2023-05-14T17:28:52.875Z,100079.23
2023-05-14T17:31:31.848Z,100072.60
2023-05-14T17:34:13.369Z,100077.07
2023-05-14T17:37:04.746Z,100075.92
2023-05-14T17:41:14.037Z,100067.27
2023-05-14T17:44:47.028Z,100078.48
2023-05-14T17:52:34.391Z,100068.76
2023-05-14T17:57:16.673Z,100064.13
2023-05-14T18:01:41.369Z,100077.48
2023-05-14T18:06:43.205Z,100074.29
2023-05-14T18:11:05.837Z,100070.60
2023-05-14T18:15:44.047Z,100071.27
2023-05-14T18:19:01.169Z,100068.60
2023-05-14T18:21:31.326Z,100072.73
2023-05-14T18:24:04.898Z,100069.66
2023-05-14T18:26:35.090Z,100068.60
2023-05-14T18:29:10.253Z,100065.30
2023-05-14T18:31:41.189Z,100064.23
2023-05-14T18:34:25.555Z,100064.56
2023-05-14T18:36:59.777Z,100062.08
2023-05-14T18:39:33.474Z,100043.23
2023-05-14T18:42:11.178Z,100058.11
2023-05-14T18:44:45.598Z,100056.38
2023-05-14T18:47:19.810Z,100055.85
2023-05-14T18:49:57.615Z,100054.19
2023-05-14T18:52:42.806Z,100058.69
2023-05-14T18:55:20.213Z,100063.14
2023-05-14T18:58:18.295Z,100058.94
2023-05-14T19:01:01.286Z,100058.81
2023-05-14T19:03:54.700Z,100058.16
2023-05-14T19:06:25.558Z,100054.23
2023-05-14T19:09:24.489Z,100051.18
2023-05-14T19:11:59.176Z,100049.14
2023-05-14T19:14:35.160Z,100046.90
2023-05-14T19:17:34.079Z,100050.20
2023-05-14T19:20:29.656Z,100050.45
2023-05-14T19:23:04.983Z,100053.07
2023-05-14T19:26:26.347Z,100055.88
2023-05-14T19:29:26.234Z,100049.41
2023-05-14T19:32:00.923Z,100044.27
2023-05-14T19:34:42.544Z,100037.75
2023-05-14T19:37:59.395Z,100036.27
2023-05-14T19:41:23.545Z,100035.05
2023-05-14T19:44:48.183Z,100032.38
2023-05-14T19:47:24.851Z,100028.23
2023-05-14T19:51:08.532Z,100018.10
2023-05-14T19:54:16.255Z,100017.58
2023-05-14T19:57:16.303Z,100023.98
2023-05-14T20:00:55.812Z,100022.17
2023-05-14T20:03:32.668Z,100023.27
2023-05-14T20:06:14.788Z,100025.61
2023-05-14T20:08:46.150Z,100026.03
2023-05-14T20:11:18.522Z,100028.02
2023-05-14T20:13:49.164Z,100020.84
2023-05-14T20:16:21.247Z,100018.60
2023-05-14T20:19:18.650Z,100006.80
2023-05-14T20:21:55.182Z,99992.63
2023-05-14T20:24:43.398Z,99988.40
2023-05-14T20:27:19.343Z,99984.46
2023-05-14T20:29:51.572Z,99982.20
2023-05-14T20:32:25.376Z,99973.15
2023-05-14T20:35:10.007Z,99978.38
2023-05-14T20:38:15.519Z,99983.37
2023-05-14T20:42:13.521Z,99969.58
2023-05-14T20:45:21.857Z,99979.62
2023-05-14T20:48:23.105Z,99958.05
2023-05-14T20:51:26.395Z,99948.48
2023-05-14T20:55:07.388Z,99942.66
2023-05-14T21:02:38.951Z,99934.44
2023-05-14T21:06:59.229Z,99932.27
2023-05-14T21:10:38.712Z,99931.69
2023-05-14T21:13:57.344Z,99931.67
2023-05-14T21:17:56.738Z,99937.73
2023-05-14T21:22:11.766Z,99931.63
2023-05-14T21:26:03.596Z,99925.42
2023-05-14T21:30:42.723Z,99924.90
2023-05-14T21:34:02.761Z,99901.59
2023-05-14T21:38:09.627Z,99900.89
2023-05-14T21:41:14.318Z,99914.52
2023-05-14T21:43:45.518Z,99945.89
2023-05-14T21:46:16.455Z,99958.30
2023-05-14T21:48:50.609Z,99967.97
2023-05-14T21:51:21.811Z,99973.00
2023-05-14T21:53:52.698Z,99976.35
2023-05-14T21:56:24.297Z,99975.63
2023-05-14T21:58:55.789Z,99971.19
2023-05-14T22:01:35.638Z,99963.40
2023-05-14T22:06:42.305Z,99956.23
2023-05-14T22:09:14.153Z,99955.71
2023-05-14T22:11:48.178Z,99955.16
2023-05-14T22:14:16.955Z,99953.85
2023-05-14T22:16:48.562Z,99951.13
2023-05-14T22:19:17.442Z,99951.30
2023-05-14T22:21:51.104Z,99941.08
2023-05-14T22:24:22.976Z,99940.73
2023-05-14T22:26:58.708Z,99932.30
2023-05-14T22:29:27.338Z,99928.98
2023-05-14T22:31:58.699Z,99920.90
2023-05-14T22:34:27.548Z,99913.64
2023-05-14T22:37:03.085Z,99907.65
2023-05-14T22:39:37.513Z,99902.23
2023-05-14T22:42:06.502Z,99896.95
2023-05-14T22:44:41.220Z,99898.64
2023-05-14T22:47:21.084Z,99893.59
2023-05-14T22:49:52.943Z,99889.13
2023-05-14T22:52:25.814Z,99887.34
2023-05-14T22:54:59.922Z,99885.39
2023-05-14T22:57:36.710Z,99878.28
2023-05-14T23:00:19.330Z,99878.52
2023-05-14T23:02:50.990Z,99872.06
2023-05-14T23:05:25.907Z,99870.08
2023-05-14T23:08:01.365Z,99868.80
2023-05-14T23:10:30.125Z,99858.44
2023-05-14T23:13:01.811Z,99852.59
2023-05-14T23:15:42.638Z,99848.91
2023-05-14T23:18:12.114Z,99852.05
2023-05-14T23:20:44.030Z,99848.80
2023-05-14T23:23:20.088Z,99847.70
2023-05-14T23:25:50.319Z,99849.02
2023-05-14T23:28:21.664Z,99846.33
2023-05-14T23:30:52.912Z,99840.27
2023-05-14T23:33:31.119Z,99838.60
2023-05-14T23:36:02.561Z,99836.39
2023-05-14T23:38:34.132Z,99826.17
2023-05-14T23:41:08.560Z,99819.69
2023-05-14T23:43:43.768Z,99815.60
2023-05-14T23:46:14.952Z,99816.27
2023-05-14T23:48:49.041Z,99812.98
2023-05-14T23:51:30.940Z,99794.20
2023-05-14T23:54:22.053Z,99800.05
2023-05-14T23:56:55.228Z,99793.40
2023-05-14T23:59:40.276Z,99785.57
